Time;durP1;ratioP1;P1;durP2;ratioP2;P2;SDS_P1;SDS_P2;PMS_P1;PMS_P2;Temp;Humidity;BMP_temperature;BMP_pressure;BME280_temperature;BME280_humidity;BME280_pressure;Samples;Min_cycle;Max_cycle;Signal;HPM_P1;HPM_P2
2021/05/05 00:00:37;;;;;;;1.70;1.10;;;;;;;6.89;67.55;98855.91;5093135;28;20173;-69
2021/05/05 00:03:02;;;;;;;1.33;0.90;;;;;;;6.83;67.30;98866.09;5094166;28;20259;-69
2021/05/05 00:05:28;;;;;;;1.77;1.23;;;;;;;6.76;67.56;98870.13;5094244;28;20166;-70
2021/05/05 00:07:53;;;;;;;3.70;1.30;;;;;;;6.79;67.23;98873.41;5094044;28;20235;-70
2021/05/05 00:10:18;;;;;;;2.53;1.87;;;;;;;6.85;67.22;98859.72;5094011;28;20174;-70
2021/05/05 00:12:44;;;;;;;3.23;1.10;;;;;;;6.80;67.87;98853.03;5093984;28;20727;-70
2021/05/05 00:15:21;;;;;;;4.43;1.10;;;;;;;6.84;67.21;98862.47;5093040;28;20166;-70
2021/05/05 00:17:47;;;;;;;2.77;1.10;;;;;;;6.76;67.39;98860.34;5092573;28;20165;-70
2021/05/05 00:20:14;;;;;;;3.90;1.40;;;;;;;6.79;67.29;98854.84;5092596;28;20246;-70
2021/05/05 00:22:39;;;;;;;2.43;1.30;;;;;;;6.74;67.70;98851.66;5092861;28;20190;-70
2021/05/05 00:25:06;;;;;;;2.07;1.40;;;;;;;6.78;67.90;98863.75;5093751;28;20166;-70
2021/05/05 00:27:31;;;;;;;3.30;1.50;;;;;;;6.84;67.55;98863.31;5093164;28;20198;-70
2021/05/05 00:29:57;;;;;;;2.83;1.53;;;;;;;6.81;67.50;98839.69;5093153;28;20542;-70
2021/05/05 00:32:23;;;;;;;2.00;1.40;;;;;;;6.79;68.22;98849.53;5092945;28;20190;-70
2021/05/05 00:34:48;;;;;;;4.43;1.57;;;;;;;6.69;68.32;98847.59;5092310;28;20686;-70
2021/05/05 00:37:13;;;;;;;3.37;1.93;;;;;;;6.75;68.31;98841.91;5093933;28;20534;-70
2021/05/05 00:39:39;;;;;;;6.27;1.90;;;;;;;6.85;67.67;98848.25;5092247;28;20202;-69
2021/05/05 00:42:04;;;;;;;2.20;1.53;;;;;;;6.80;68.26;98839.78;5092417;28;20195;-70
2021/05/05 00:44:29;;;;;;;3.17;1.87;;;;;;;6.85;68.08;98853.56;5093494;28;20174;-70
2021/05/05 00:46:55;;;;;;;3.47;1.97;;;;;;;6.78;68.50;98847.00;5075119;28;20190;-70
2021/05/05 00:49:20;;;;;;;4.33;2.10;;;;;;;6.87;67.98;98830.44;5093634;28;20172;-70
2021/05/05 00:51:45;;;;;;;1.90;1.63;;;;;;;6.92;67.91;98838.06;5093000;28;20205;-70
2021/05/05 00:54:11;;;;;;;3.87;2.13;;;;;;;6.91;68.43;98863.75;5092625;28;20169;-70
2021/05/05 00:56:36;;;;;;;2.40;2.17;;;;;;;6.97;68.18;98847.41;5091566;28;20500;-70
2021/05/05 00:59:01;;;;;;;3.27;1.87;;;;;;;7.05;67.78;98844.22;5092027;28;20227;-70
2021/05/05 01:01:27;;;;;;;3.87;1.90;;;;;;;7.05;67.90;98850.38;5093117;28;20537;-70
2021/05/05 01:03:52;;;;;;;6.00;1.80;;;;;;;7.14;67.52;98831.19;5092585;28;20527;-70
2021/05/05 01:06:17;;;;;;;2.40;1.80;;;;;;;7.12;67.25;98849.00;5092416;28;20186;-70
2021/05/05 01:08:44;;;;;;;1.97;1.80;;;;;;;7.05;68.02;98833.59;5092122;28;20193;-70
2021/05/05 01:11:10;;;;;;;1.90;1.77;;;;;;;7.14;67.59;98827.69;5093145;28;20739;-70
2021/05/05 01:13:35;;;;;;;2.30;1.80;;;;;;;7.18;67.38;98835.31;5093238;28;20249;-70
2021/05/05 01:16:00;;;;;;;2.50;1.90;;;;;;;7.10;67.51;98816.44;5093479;28;20185;-70
2021/05/05 01:18:26;;;;;;;3.60;1.97;;;;;;;7.15;66.98;98854.09;5091731;28;20186;-70
2021/05/05 01:20:59;;;;;;;4.50;2.00;;;;;;;7.17;66.82;98830.97;5093488;28;20219;-70
2021/05/05 01:23:25;;;;;;;2.73;2.33;;;;;;;7.17;67.36;98827.47;5092119;28;20194;-70
2021/05/05 01:25:50;;;;;;;1.97;1.80;;;;;;;7.14;67.45;98840.94;5093007;28;20203;-70
2021/05/05 01:28:15;;;;;;;2.17;1.70;;;;;;;7.19;66.49;98825.53;5091773;28;20205;-70
2021/05/05 01:30:40;;;;;;;1.70;1.60;;;;;;;7.16;67.07;98839.88;5091929;28;20166;-70
2021/05/05 01:33:06;;;;;;;3.00;1.80;;;;;;;7.02;67.30;98825.84;5092832;28;20197;-70
2021/05/05 01:35:32;;;;;;;2.27;1.80;;;;;;;7.02;67.34;98821.41;5091624;28;20182;-70
2021/05/05 01:37:57;;;;;;;3.00;1.60;;;;;;;7.06;67.06;98800.81;5092981;28;20198;-70
2021/05/05 01:40:28;;;;;;;2.90;1.90;;;;;;;7.04;67.32;98816.00;5092958;28;20177;-70
2021/05/05 01:42:53;;;;;;;2.47;2.10;;;;;;;7.07;67.12;98794.59;5091761;28;20205;-70
2021/05/05 01:45:19;;;;;;;3.10;1.87;;;;;;;7.03;67.04;98804.53;5093077;28;20174;-70
2021/05/05 01:47:44;;;;;;;1.80;1.70;;;;;;;7.00;66.93;98836.59;5091480;28;20192;-70
2021/05/05 01:50:10;;;;;;;3.27;1.97;;;;;;;7.05;67.43;98815.03;5093007;28;20186;-70
2021/05/05 01:52:36;;;;;;;3.93;2.10;;;;;;;7.06;67.03;98798.16;5091228;28;20206;-70
2021/05/05 01:55:02;;;;;;;2.70;1.80;;;;;;;7.07;67.32;98810.50;5092846;28;20586;-70
2021/05/05 01:57:38;;;;;;;3.33;1.90;;;;;;;7.14;67.49;98814.41;5074711;28;20162;-70
2021/05/05 02:00:06;;;;;;;3.30;2.20;;;;;;;7.01;68.46;98817.06;5092869;28;20212;-70
2021/05/05 02:02:32;;;;;;;2.00;1.90;;;;;;;7.07;68.14;98803.38;5091262;28;20196;-70
2021/05/05 02:04:57;;;;;;;5.23;2.23;;;;;;;6.97;68.92;98804.97;5092572;28;20229;-70
2021/05/05 02:07:23;;;;;;;3.87;1.90;;;;;;;7.12;68.12;98801.25;5092562;28;20243;-70
2021/05/05 02:09:48;;;;;;;3.10;1.93;;;;;;;7.12;68.08;98822.47;5096243;28;20210;-70
2021/05/05 02:12:14;;;;;;;6.90;2.33;;;;;;;7.09;67.80;98805.94;5094947;28;20197;-70
2021/05/05 02:14:41;;;;;;;4.10;2.00;;;;;;;7.03;67.90;98806.34;5094991;28;20210;-70
2021/05/05 02:17:06;;;;;;;5.30;2.00;;;;;;;7.07;67.87;98800.72;5096444;28;20213;-70
2021/05/05 02:19:31;;;;;;;2.57;2.17;;;;;;;6.98;68.06;98809.31;5096822;28;20177;-70
2021/05/05 02:21:57;;;;;;;3.50;2.33;;;;;;;7.03;67.54;98799.22;5096575;28;20174;-70
2021/05/05 02:24:22;;;;;;;3.00;2.13;;;;;;;6.99;67.38;98800.41;5095092;28;20637;-70
2021/05/05 02:26:47;;;;;;;5.27;1.90;;;;;;;6.92;68.06;98800.94;5095973;28;20186;-70
2021/05/05 02:29:13;;;;;;;3.30;2.10;;;;;;;6.99;67.90;98797.75;5096465;28;20182;-70
2021/05/05 02:31:38;;;;;;;2.20;2.00;;;;;;;7.02;67.62;98786.91;5095856;28;20227;-70
2021/05/05 02:34:04;;;;;;;2.57;1.87;;;;;;;7.01;67.50;98797.66;5095819;28;20197;-70
2021/05/05 02:36:30;;;;;;;6.60;1.70;;;;;;;7.16;66.90;98783.31;5094614;28;20174;-70
2021/05/05 02:38:56;;;;;;;2.20;2.00;;;;;;;7.20;66.32;98784.78;5094491;28;20170;-70
2021/05/05 02:41:22;;;;;;;2.27;1.50;;;;;;;7.12;66.67;98779.19;5094772;28;20259;-70
2021/05/05 02:43:47;;;;;;;1.90;1.80;;;;;;;7.09;66.70;98782.06;5095560;28;20557;-70
2021/05/05 02:46:12;;;;;;;1.70;1.60;;;;;;;7.14;65.84;98783.44;5094913;28;20188;-70
2021/05/05 02:48:37;;;;;;;2.37;1.60;;;;;;;7.21;65.37;98782.03;5094281;28;20189;-70
2021/05/05 02:51:03;;;;;;;1.80;1.40;;;;;;;7.21;64.80;98786.47;5095547;28;20209;-70
2021/05/05 02:53:28;;;;;;;2.90;1.40;;;;;;;7.20;65.50;98775.03;5095440;28;20207;-70
2021/05/05 02:55:53;;;;;;;2.93;1.20;;;;;;;7.27;64.10;98785.19;5094084;28;20175;-70
2021/05/05 02:58:19;;;;;;;1.40;1.30;;;;;;;7.21;64.19;98805.91;5095444;28;20188;-70
2021/05/05 03:00:44;;;;;;;1.63;1.10;;;;;;;7.17;63.12;98795.63;5096182;28;20180;-70
2021/05/05 03:03:09;;;;;;;3.73;1.37;;;;;;;7.05;64.09;98785.84;5095128;28;20566;-70
2021/05/05 03:05:34;;;;;;;2.67;1.40;;;;;;;7.00;63.71;98780.88;5095708;28;20166;-70
2021/05/05 03:08:00;;;;;;;2.60;1.33;;;;;;;6.99;63.76;98773.88;5093959;28;20182;-70
2021/05/05 03:10:25;;;;;;;2.90;1.10;;;;;;;7.02;63.10;98794.03;5095092;28;20179;-70
2021/05/05 03:12:50;;;;;;;2.37;1.27;;;;;;;7.09;63.22;98776.75;5094102;28;20186;-70
2021/05/05 03:15:16;;;;;;;1.73;1.00;;;;;;;7.11;63.40;98782.78;5095506;28;20174;-70
2021/05/05 03:17:41;;;;;;;2.00;1.07;;;;;;;7.12;63.32;98792.44;5094056;28;20619;-70
2021/05/05 03:20:09;;;;;;;1.20;0.90;;;;;;;7.12;63.37;98780.03;5093148;28;20162;-69
2021/05/05 03:22:34;;;;;;;3.93;1.23;;;;;;;7.15;63.75;98771.84;5093478;28;20217;-69
2021/05/05 03:25:00;;;;;;;3.67;1.10;;;;;;;7.05;63.71;98765.47;5093679;28;20662;-70
2021/05/05 03:27:25;;;;;;;4.83;1.07;;;;;;;7.06;64.59;98764.56;5094988;28;20198;-70
2021/05/05 03:29:50;;;;;;;2.47;1.33;;;;;;;6.97;64.82;98781.09;5076985;28;20232;-69
2021/05/05 03:32:15;;;;;;;1.10;1.00;;;;;;;7.09;63.94;98780.25;5094842;28;20187;-70
2021/05/05 03:34:41;;;;;;;4.83;1.20;;;;;;;7.16;63.58;98781.50;5094632;28;20180;-70
2021/05/05 03:37:06;;;;;;;2.50;1.10;;;;;;;7.12;64.04;98787.16;5094666;28;20166;-70
2021/05/05 03:39:32;;;;;;;4.63;1.20;;;;;;;7.16;63.73;98773.53;5094553;28;20180;-69
2021/05/05 03:41:57;;;;;;;1.73;1.20;;;;;;;7.10;64.14;98778.44;5093289;28;20167;-70
2021/05/05 03:44:22;;;;;;;1.53;1.00;;;;;;;7.07;64.57;98763.59;5093205;28;20174;-69
2021/05/05 03:46:47;;;;;;;7.27;2.03;;;;;;;7.16;64.54;98776.19;5094271;28;20279;-70
2021/05/05 03:49:13;;;;;;;2.13;1.40;;;;;;;7.05;64.55;98777.91;5094455;28;20705;-70
2021/05/05 03:51:38;;;;;;;2.80;1.30;;;;;;;7.14;64.31;98764.84;5093282;28;20167;-70
2021/05/05 03:54:04;;;;;;;2.70;1.30;;;;;;;7.14;64.72;98767.50;5114901;22;20233;-74
2021/05/05 03:56:29;;;;;;;1.70;1.57;;;;;;;7.07;65.30;98770.72;5077386;28;20170;-74
2021/05/05 03:58:54;;;;;;;2.33;1.50;;;;;;;7.18;65.18;98771.63;5095167;28;20177;-74
2021/05/05 04:01:20;;;;;;;1.60;1.50;;;;;;;7.16;65.50;98776.19;5093989;28;20235;-74
2021/05/05 04:03:45;;;;;;;1.63;1.40;;;;;;;7.20;65.47;98775.03;5093706;28;20217;-76
2021/05/05 04:06:10;;;;;;;2.17;1.80;;;;;;;7.13;66.20;98776.41;5093198;28;20574;-75
2021/05/05 04:08:36;;;;;;;2.67;1.80;;;;;;;7.10;65.32;98758.06;5095274;28;20531;-75
2021/05/05 04:11:01;;;;;;;2.33;1.53;;;;;;;7.16;64.47;98767.41;5095084;28;20178;-75
2021/05/05 04:13:26;;;;;;;2.10;1.57;;;;;;;7.24;63.40;98778.31;5093569;28;20201;-74
2021/05/05 04:15:52;;;;;;;1.30;1.20;;;;;;;7.25;63.53;98787.97;5094746;28;20628;-74
2021/05/05 04:18:17;;;;;;;4.07;1.20;;;;;;;7.17;62.91;98796.47;5094592;28;20171;-75
2021/05/05 04:20:43;;;;;;;3.50;1.60;;;;;;;7.25;63.29;98803.03;5093070;28;20209;-75
2021/05/05 04:23:08;;;;;;;1.50;1.27;;;;;;;7.32;62.26;98791.00;5094810;28;20227;-75
2021/05/05 04:25:33;;;;;;;1.63;1.30;;;;;;;7.29;63.02;98775.31;5094547;28;20254;-75
2021/05/05 04:27:58;;;;;;;1.93;1.20;;;;;;;7.28;62.95;98769.16;5094585;28;20298;-74
2021/05/05 04:30:24;;;;;;;1.77;1.30;;;;;;;7.35;62.84;98774.88;5094412;28;20560;-75
2021/05/05 04:32:50;;;;;;;1.63;1.13;;;;;;;7.28;63.33;98769.16;5093638;28;20194;-76
2021/05/05 04:35:16;;;;;;;3.83;2.00;;;;;;;7.30;63.31;98769.03;5093918;28;20241;-73
2021/05/05 04:37:42;;;;;;;1.50;1.30;;;;;;;7.26;64.56;98786.16;5096720;28;20628;-73
2021/05/05 04:40:08;;;;;;;2.50;1.50;;;;;;;7.23;63.70;98779.25;5099858;28;20190;-74
2021/05/05 04:42:33;;;;;;;2.63;1.27;;;;;;;7.26;64.12;98770.22;5092969;28;20670;-75
2021/05/05 04:45:03;;;;;;;3.40;1.17;;;;;;;7.32;63.36;98769.78;5075971;28;20173;-74
2021/05/05 04:47:29;;;;;;;1.27;1.17;;;;;;;7.31;62.57;98790.16;5092660;28;20190;-73
2021/05/05 04:49:55;;;;;;;1.30;1.10;;;;;;;7.30;62.65;98772.53;5094287;28;20232;-73
2021/05/05 04:52:20;;;;;;;1.20;1.00;;;;;;;7.27;62.66;98774.56;5092462;28;20172;-72
2021/05/05 04:54:46;;;;;;;1.77;1.10;;;;;;;7.17;63.46;98766.44;5092394;28;20603;-73
2021/05/05 04:57:11;;;;;;;1.10;1.00;;;;;;;7.35;61.95;98777.53;5094266;28;20208;-73
2021/05/05 04:59:36;;;;;;;1.20;1.10;;;;;;;7.39;62.38;98785.16;5094620;28;20198;-75
2021/05/05 05:02:02;;;;;;;2.13;1.53;;;;;;;7.37;62.79;98772.94;5075889;28;20196;-74
2021/05/05 05:04:27;;;;;;;1.33;1.23;;;;;;;7.38;63.29;98767.53;5093955;28;20229;-75
2021/05/05 05:06:52;;;;;;;2.87;1.80;;;;;;;7.39;63.63;98769.22;5094081;28;20195;-76
2021/05/05 05:09:17;;;;;;;1.50;1.40;;;;;;;7.46;63.65;98777.63;5095294;28;20170;-76
2021/05/05 05:11:43;;;;;;;2.23;1.60;;;;;;;7.35;64.48;98775.72;5096098;28;20176;-77
2021/05/05 05:14:08;;;;;;;1.47;1.37;;;;;;;7.47;64.43;98796.09;5096565;28;20197;-76
2021/05/05 05:16:34;;;;;;;1.73;1.63;;;;;;;7.44;64.84;98791.00;5096894;28;20165;-76
2021/05/05 05:18:59;;;;;;;2.57;1.90;;;;;;;7.52;64.61;98774.50;5103713;28;20182;-76
2021/05/05 05:21:24;;;;;;;3.73;1.73;;;;;;;7.47;64.86;98787.28;5095172;28;20539;-76
2021/05/05 05:23:50;;;;;;;2.37;1.77;;;;;;;7.40;64.66;98789.50;5094467;28;20184;-76
2021/05/05 05:26:15;;;;;;;1.80;1.70;;;;;;;7.43;64.93;98780.47;5094591;28;20192;-77
2021/05/05 05:28:40;;;;;;;2.40;1.87;;;;;;;7.33;64.98;98788.25;5092751;28;20269;-77
2021/05/05 05:31:06;;;;;;;3.90;1.50;;;;;;;7.39;64.66;98779.84;5095502;28;20182;-76
2021/05/05 05:33:31;;;;;;;1.47;1.37;;;;;;;7.53;64.71;98786.81;5095192;28;20276;-76
2021/05/05 05:35:56;;;;;;;2.13;1.60;;;;;;;7.59;64.32;98791.69;5095458;28;20209;-76
2021/05/05 05:38:22;;;;;;;2.03;1.47;;;;;;;7.55;63.78;98795.53;5093757;28;20186;-76
2021/05/05 05:40:47;;;;;;;4.60;2.33;;;;;;;7.48;63.26;98811.03;5093722;28;20183;-69
2021/05/05 05:43:12;;;;;;;1.70;1.60;;;;;;;7.58;64.20;98803.25;5094401;28;20562;-69
2021/05/05 05:45:37;;;;;;;4.70;1.90;;;;;;;7.59;63.34;98812.91;5097400;28;20571;-69
2021/05/05 05:48:03;;;;;;;4.33;1.60;;;;;;;7.57;63.70;98809.53;5097094;28;20196;-70
2021/05/05 05:50:28;;;;;;;2.87;1.13;;;;;;;7.55;63.02;98803.47;5096557;28;20170;-69
2021/05/05 05:52:54;;;;;;;4.70;1.73;;;;;;;7.73;61.82;98806.59;5096710;28;20261;-69
2021/05/05 05:55:19;;;;;;;3.27;2.10;;;;;;;7.75;61.63;98809.97;5095538;28;20546;-70
2021/05/05 05:57:47;;;;;;;1.20;1.03;;;;;;;7.69;60.99;98823.72;5077238;28;20169;-69
2021/05/05 06:00:16;;;;;;;2.43;1.00;;;;;;;7.74;60.59;98801.16;5095613;28;20703;-73
2021/05/05 06:02:42;;;;;;;2.43;0.93;;;;;;;7.84;59.68;98827.91;5094220;28;20203;-74
2021/05/05 06:05:08;;;;;;;1.83;0.80;;;;;;;7.84;58.43;98806.69;5095066;28;20174;-73
2021/05/05 06:07:33;;;;;;;1.73;0.90;;;;;;;7.93;58.85;98824.59;5097747;28;20233;-72
2021/05/05 06:09:58;;;;;;;1.97;1.13;;;;;;;7.88;58.51;98850.63;5097563;28;20702;-73
2021/05/05 06:12:24;;;;;;;2.30;0.70;;;;;;;7.82;57.83;98827.19;5095379;28;20553;-74
2021/05/05 06:14:50;;;;;;;4.23;0.73;;;;;;;7.72;58.42;98816.38;5094799;28;20630;-72
2021/05/05 06:17:15;;;;;;;3.37;1.40;;;;;;;7.71;59.22;98881.06;5094498;28;20170;-74
2021/05/05 06:19:41;;;;;;;2.27;0.80;;;;;;;7.72;58.66;98824.34;5096587;28;20181;-73
2021/05/05 06:22:06;;;;;;;3.43;1.10;;;;;;;7.66;58.80;98821.28;5096185;28;20263;-74
2021/05/05 06:24:31;;;;;;;3.03;0.87;;;;;;;7.62;59.35;98822.47;5096247;28;20226;-74
2021/05/05 06:26:57;;;;;;;3.03;1.07;;;;;;;7.67;59.34;98854.84;5095434;28;20737;-74
2021/05/05 06:29:22;;;;;;;2.17;1.00;;;;;;;7.53;60.04;98837.25;5094095;28;20634;-74
2021/05/05 06:31:47;;;;;;;3.50;1.20;;;;;;;7.55;59.95;98819.41;5095094;28;20170;-73
2021/05/05 06:34:13;;;;;;;3.30;0.97;;;;;;;7.67;59.80;98853.03;5076874;28;20197;-73
2021/05/05 06:36:38;;;;;;;2.43;1.03;;;;;;;7.47;60.39;98827.09;5095287;28;20182;-73
2021/05/05 06:39:07;;;;;;;3.87;1.00;;;;;;;7.57;60.15;98853.81;5094958;28;20167;-74
2021/05/05 06:41:32;;;;;;;1.13;0.73;;;;;;;7.68;59.72;98861.84;5076941;28;20177;-73
2021/05/05 06:43:59;;;;;;;3.20;1.13;;;;;;;7.57;59.47;98849.34;5096051;28;20192;-73
2021/05/05 06:46:24;;;;;;;3.20;1.40;;;;;;;7.56;59.92;98884.81;5094986;28;20282;-72
2021/05/05 06:48:49;;;;;;;1.70;1.07;;;;;;;7.55;59.62;98837.16;5095760;28;20210;-73
2021/05/05 06:51:14;;;;;;;2.53;0.90;;;;;;;7.49;59.49;98852.56;5095818;28;20206;-72
2021/05/05 06:53:40;;;;;;;1.50;0.80;;;;;;;7.50;59.61;98848.09;5075324;28;532321;-74
2021/05/05 06:56:05;;;;;;;1.17;0.70;;;;;;;7.61;58.96;98837.53;5094648;28;20174;-72
2021/05/05 06:58:30;;;;;;;2.43;1.20;;;;;;;7.74;58.42;98832.19;5095544;28;20189;-73
2021/05/05 07:00:56;;;;;;;1.83;0.70;;;;;;;7.85;57.72;98845.56;5097683;28;20184;-76
2021/05/05 07:03:21;;;;;;;1.07;0.80;;;;;;;7.89;57.71;98824.94;5096180;28;20207;-73
2021/05/05 07:05:46;;;;;;;2.07;0.83;;;;;;;7.96;57.63;98827.00;5095903;28;20198;-73
2021/05/05 07:08:12;;;;;;;2.27;0.93;;;;;;;8.12;57.42;98832.88;5096319;28;20170;-73
2021/05/05 07:10:37;;;;;;;2.20;0.87;;;;;;;8.40;56.44;98828.19;5094282;28;20177;-72
2021/05/05 07:13:02;;;;;;;1.83;0.77;;;;;;;8.33;55.90;98835.78;5094157;28;20261;-71
2021/05/05 07:15:28;;;;;;;3.93;0.97;;;;;;;8.36;56.52;98848.84;5095824;28;20632;-73
2021/05/05 07:17:54;;;;;;;1.67;0.70;;;;;;;8.58;55.93;98839.25;5095644;28;20648;-73
2021/05/05 07:20:19;;;;;;;3.23;1.67;;;;;;;8.41;55.66;98848.47;5095424;28;20174;-73
2021/05/05 07:22:45;;;;;;;2.97;1.00;;;;;;;8.22;56.56;98848.16;5093868;28;20263;-72
2021/05/05 07:25:11;;;;;;;2.30;1.17;;;;;;;7.69;61.24;98856.41;5095251;28;20195;-71
2021/05/05 07:27:37;;;;;;;2.17;0.80;;;;;;;6.93;64.71;98853.88;5094923;28;20203;-73
2021/05/05 07:30:04;;;;;;;3.00;0.83;;;;;;;6.62;66.32;98852.47;5095571;28;20542;-73
2021/05/05 07:32:29;;;;;;;2.40;0.90;;;;;;;6.39;68.25;98867.28;5094197;28;20210;-74
2021/05/05 07:34:55;;;;;;;0.80;0.80;;;;;;;6.35;69.38;98863.16;5094465;28;20277;-74
2021/05/05 07:38:28;;;;;;;1.77;0.87;;;;;;;6.46;67.52;98873.03;5095896;28;20178;-73
2021/05/05 07:45:54;;;;;;;2.33;1.40;;;;;;;6.62;66.82;98868.38;5094530;28;20169;-74
2021/05/05 07:48:36;;;;;;;2.20;1.10;;;;;;;6.83;64.91;98856.31;5095523;28;20629;-72
2021/05/05 07:51:02;;;;;;;3.13;0.93;;;;;;;7.38;63.60;98860.41;5095602;28;20189;-72
2021/05/05 07:53:27;;;;;;;3.57;0.90;;;;;;;7.47;61.15;98837.72;5094928;28;20211;-74
2021/05/05 07:55:56;;;;;;;1.30;0.70;;;;;;;7.49;60.77;98887.06;5094908;28;20251;-73
2021/05/05 07:58:22;;;;;;;2.87;0.90;;;;;;;7.76;59.79;98870.94;5095836;28;20180;-73
2021/05/05 08:00:47;;;;;;;1.50;0.90;;;;;;;7.97;59.08;98857.94;5095688;28;20658;-73
2021/05/05 08:03:13;;;;;;;5.20;0.83;;;;;;;8.24;58.00;98865.69;5093925;28;20683;-74
2021/05/05 08:05:38;;;;;;;8.17;1.10;;;;;;;8.47;57.76;98890.56;5094038;28;20198;-73
2021/05/05 08:08:03;;;;;;;1.90;0.70;;;;;;;8.37;56.98;98882.44;5094189;28;20198;-73
2021/05/05 08:10:29;;;;;;;3.07;1.27;;;;;;;8.54;56.50;98864.34;5094210;28;20182;-72
2021/05/05 08:12:54;;;;;;;2.47;0.80;;;;;;;8.76;55.92;98904.31;5094643;28;20201;-73
2021/05/05 08:15:20;;;;;;;4.77;0.83;;;;;;;8.47;56.33;98874.59;5098353;28;20195;-74
2021/05/05 08:17:46;;;;;;;1.47;0.60;;;;;;;8.32;57.00;98857.13;5093956;28;20170;-74
2021/05/05 08:20:12;;;;;;;6.20;0.90;;;;;;;8.52;56.66;98860.97;5095674;28;20165;-73
2021/05/05 08:22:37;;;;;;;4.10;0.87;;;;;;;8.51;56.26;98873.41;5094818;28;20219;-73
2021/05/05 08:25:04;;;;;;;3.60;1.00;;;;;;;8.67;55.26;98868.66;5094807;28;20173;-72
2021/05/05 08:27:29;;;;;;;4.80;0.83;;;;;;;8.94;54.73;98868.34;5093355;28;20205;-72
2021/05/05 08:29:54;;;;;;;1.67;0.60;;;;;;;8.64;55.35;98884.84;5093569;28;20174;-72
2021/05/05 08:32:20;;;;;;;1.13;0.60;;;;;;;8.38;55.36;98896.56;5094499;28;20173;-74
2021/05/05 08:34:45;;;;;;;1.80;0.80;;;;;;;8.29;56.23;98863.53;5093368;28;20176;-73
2021/05/05 08:37:11;;;;;;;3.10;0.90;;;;;;;8.21;55.99;98871.22;5093879;28;20180;-72
2021/05/05 08:39:36;;;;;;;2.37;0.97;;;;;;;8.07;56.79;98868.72;5092725;28;20188;-72
2021/05/05 08:42:02;;;;;;;1.90;0.80;;;;;;;8.15;56.59;98876.97;5093414;28;20180;-74
2021/05/05 08:44:27;;;;;;;4.77;1.17;;;;;;;8.45;55.47;98888.00;5092793;28;20285;-73
2021/05/05 08:46:53;;;;;;;4.90;0.97;;;;;;;8.63;55.76;98880.47;5092997;28;20254;-73
2021/05/05 08:49:19;;;;;;;1.20;0.60;;;;;;;8.89;54.92;98873.16;5092870;28;20198;-73
2021/05/05 08:51:44;;;;;;;1.37;0.73;;;;;;;8.82;55.05;98903.84;5075871;28;20176;-72
2021/05/05 08:54:10;;;;;;;2.77;0.80;;;;;;;8.48;56.42;98863.00;5093669;28;20198;-72
2021/05/05 08:56:36;;;;;;;1.77;0.87;;;;;;;8.71;56.75;98896.69;5092608;28;20195;-72
2021/05/05 08:59:09;;;;;;;2.33;0.90;;;;;;;9.08;56.40;98885.91;5075634;28;20261;-72
2021/05/05 09:01:35;;;;;;;2.27;0.70;;;;;;;8.61;58.72;98969.31;5093887;28;20538;-72
2021/05/05 09:04:02;;;;;;;2.33;0.90;;;;;;;8.31;59.76;98905.94;5093759;28;20231;-73
2021/05/05 09:06:44;;;;;;;2.43;0.73;;;;;;;8.73;59.16;98878.81;5092631;28;20212;-73
2021/05/05 09:09:30;;;;;;;1.33;0.70;;;;;;;9.06;57.34;98890.50;5092392;28;20169;-73
2021/05/05 09:11:56;;;;;;;1.87;0.70;;;;;;;9.35;56.73;98872.25;5085974;28;20247;-73
2021/05/05 09:14:21;;;;;;;2.03;0.80;;;;;;;9.52;56.35;98871.75;5093685;28;20193;-74
2021/05/05 09:16:46;;;;;;;2.20;0.80;;;;;;;9.90;54.59;98878.50;5094367;28;20592;-73
2021/05/05 09:19:12;;;;;;;2.77;1.00;;;;;;;9.86;54.88;98882.38;5095575;28;20575;-74
2021/05/05 09:21:45;;;;;;;1.93;0.90;;;;;;;9.73;52.80;98873.69;5096576;28;20174;-72
2021/05/05 09:24:29;;;;;;;6.07;1.17;;;;;;;9.61;52.29;98860.38;5096684;28;20185;-74
2021/05/05 09:26:59;;;;;;;1.80;0.70;;;;;;;9.30;52.48;98861.97;5097450;28;20182;-72
2021/05/05 09:29:41;;;;;;;5.97;0.93;;;;;;;9.66;52.25;98847.56;5096513;28;20176;-74
2021/05/05 09:32:08;;;;;;;1.57;0.70;;;;;;;9.25;52.44;98873.94;5096310;28;20170;-73
2021/05/05 09:34:34;;;;;;;3.23;1.00;;;;;;;9.80;51.23;98882.88;5096384;28;20180;-73
2021/05/05 09:37:02;;;;;;;5.83;1.20;;;;;;;9.57;50.68;98866.06;5097689;28;20257;-73
2021/05/05 09:39:32;;;;;;;4.03;1.00;;;;;;;9.71;50.92;98866.66;5096651;28;20178;-73
2021/05/05 09:41:59;;;;;;;4.60;1.07;;;;;;;10.01;50.47;98883.78;5079612;28;20181;-73
2021/05/05 09:44:24;;;;;;;3.13;1.00;;;;;;;9.64;50.70;98857.44;5097972;28;20289;-73
2021/05/05 09:46:53;;;;;;;2.57;0.90;;;;;;;9.74;49.80;98905.53;5079362;28;20285;-73
2021/05/05 09:49:26;;;;;;;4.87;1.00;;;;;;;9.54;50.33;98880.47;5098884;28;20182;-74
2021/05/05 09:51:58;;;;;;;5.37;2.00;;;;;;;9.87;50.06;98895.56;5096185;28;20155;-73
2021/05/05 09:54:31;;;;;;;4.67;1.97;;;;;;;9.74;50.80;98862.06;5098826;22;20276;-72
2021/05/05 09:57:17;;;;;;;2.87;0.73;;;;;;;9.75;50.08;98861.09;5095355;28;20220;-71
2021/05/05 10:00:00;;;;;;;2.07;0.80;;;;;;;9.81;50.37;98874.75;5097112;28;20188;-72
2021/05/05 10:02:27;;;;;;;2.70;1.23;;;;;;;9.90;49.56;98913.97;5095366;28;20178;-71
2021/05/05 10:05:04;;;;;;;2.10;1.07;;;;;;;10.01;49.37;98881.97;5096532;28;20190;-71
2021/05/05 10:07:45;;;;;;;5.03;1.40;;;;;;;10.25;48.52;98872.97;5095126;28;20600;-71
2021/05/05 10:10:11;;;;;;;2.67;1.33;;;;;;;10.41;48.16;98867.25;5095575;28;20615;-71
2021/05/05 10:12:36;;;;;;;3.60;1.17;;;;;;;10.16;47.39;98901.22;5096929;28;20174;-71
2021/05/05 10:15:01;;;;;;;5.53;1.00;;;;;;;9.78;48.53;98896.31;5095886;28;20178;-71
2021/05/05 10:17:26;;;;;;;3.07;1.20;;;;;;;9.93;49.78;98859.59;5095055;28;20598;-70
2021/05/05 10:19:52;;;;;;;3.83;1.00;;;;;;;10.15;48.96;98872.03;5096234;28;20186;-70
2021/05/05 10:22:17;;;;;;;4.37;1.13;;;;;;;9.99;49.34;98933.72;5094704;28;20653;-71
2021/05/05 10:24:46;;;;;;;4.27;1.30;;;;;;;10.36;48.09;98877.41;5094911;28;20194;-71
2021/05/05 10:27:12;;;;;;;2.13;1.00;;;;;;;10.50;47.90;98874.47;5094937;28;20565;-70
2021/05/05 10:29:39;;;;;;;2.27;0.90;;;;;;;10.37;48.45;98866.63;5094705;28;20603;-71
2021/05/05 10:32:09;;;;;;;1.87;1.00;;;;;;;10.68;46.73;98888.09;5095026;28;20177;-71
2021/05/05 10:34:34;;;;;;;2.03;1.17;;;;;;;10.87;47.18;98886.41;5094722;28;20247;-71
2021/05/05 10:37:01;;;;;;;3.13;0.80;;;;;;;10.58;47.13;98896.00;5094567;28;20634;-70
2021/05/05 10:39:33;;;;;;;4.53;1.10;;;;;;;10.43;47.30;98887.47;5077725;28;20701;-70
2021/05/05 10:41:58;;;;;;;3.90;1.13;;;;;;;10.78;46.92;98900.53;5095207;28;20581;-71
2021/05/05 10:44:43;;;;;;;4.03;0.90;;;;;;;10.72;46.21;98925.03;5094334;28;20194;-71
2021/05/05 10:47:31;;;;;;;1.33;0.73;;;;;;;10.88;45.99;98906.78;5095794;28;20214;-71
2021/05/05 10:50:03;;;;;;;4.07;1.20;;;;;;;10.49;45.72;98902.13;5077478;28;20174;-71
2021/05/05 10:52:30;;;;;;;2.93;0.90;;;;;;;10.59;46.67;98893.22;5095635;28;20198;-71
2021/05/05 10:54:57;;;;;;;7.63;1.10;;;;;;;10.51;45.14;98969.53;5094099;28;20186;-71
2021/05/05 10:57:24;;;;;;;5.67;0.90;;;;;;;10.63;45.28;98899.97;5077575;28;20534;-70
2021/05/05 11:00:06;;;;;;;5.47;1.63;;;;;;;11.14;45.26;98893.03;5095492;28;20699;-71
2021/05/05 11:02:47;;;;;;;3.60;0.90;;;;;;;11.00;45.56;98890.69;5096590;28;20170;-70
2021/05/05 11:05:33;;;;;;;6.57;0.90;;;;;;;10.81;44.46;98896.75;5096085;28;20246;-70
2021/05/05 11:08:01;;;;;;;6.00;1.13;;;;;;;10.39;44.85;98949.16;5094204;28;20200;-70
2021/05/05 11:10:33;;;;;;;5.07;1.30;;;;;;;10.31;45.02;98905.31;5094245;28;20170;-70
2021/05/05 11:13:25;;;;;;;3.50;1.27;;;;;;;10.30;45.40;98908.09;5095271;28;20616;-71
2021/05/05 11:15:50;;;;;;;4.23;1.27;;;;;;;10.73;44.97;98928.56;5095429;28;20170;-71
2021/05/05 11:18:31;;;;;;;3.00;1.33;;;;;;;10.76;44.76;98899.78;5095358;28;20166;-71
2021/05/05 11:20:58;;;;;;;2.23;1.00;;;;;;;11.04;44.70;98919.66;5095273;28;20163;-70
2021/05/05 11:23:33;;;;;;;4.37;1.20;;;;;;;11.00;44.69;98954.75;5094371;28;20232;-71
2021/05/05 11:26:13;;;;;;;3.17;1.17;;;;;;;10.64;44.25;98938.19;5093677;28;20177;-71
2021/05/05 11:28:58;;;;;;;5.27;1.37;;;;;;;10.21;46.51;98925.72;5095085;28;20658;-70
2021/05/05 11:31:45;;;;;;;8.03;0.97;;;;;;;9.80;47.26;98941.50;5093811;28;20211;-71
2021/05/05 11:34:28;;;;;;;2.97;1.23;;;;;;;9.82;48.83;98966.19;5094881;28;20674;-71
2021/05/05 11:36:59;;;;;;;5.07;1.40;;;;;;;10.31;48.92;98941.81;5095095;28;20181;-72
2021/05/05 11:39:27;;;;;;;5.73;1.30;;;;;;;10.49;47.43;98931.47;5094549;28;20163;-71
2021/05/05 11:42:06;;;;;;;9.50;1.50;;;;;;;11.06;45.55;98946.22;5092770;28;20178;-70
2021/05/05 11:44:43;;;;;;;8.00;2.57;;;;;;;11.48;44.47;98949.72;5095142;28;20182;-71
2021/05/05 11:47:17;;;;;;;5.17;1.00;;;;;;;11.06;44.27;98939.06;5095095;28;20197;-70